Yuedian 58 — BYFE — position and weather

sailwx.info

Track history (hours):
 
Tides and Currents Weather Stations Pressure Air Temp Water Temp Dewpoint Dewpoint Depression Visibility Wind Speed Wind Dir Waves Ship Positions

Yuedian 58

Last reported at 2015-Aug-04 06:16 UTC. Time now 2015-Aug-04 11:44 UTC.
Position N 21°59' E 113°51'.

Length 190 m; draft 7 m.

Type: Cargo ship. MMSI: 414008000.

Date/timePositionNaut miles runAvg speedWind from/ knotsBaromVisibWave heightAir tempDewpointWater temp
2015-Aug-04 06:16N 21°59' E 113°51'1013.5
2015-Aug-04 05:33N 22°08' E 113°48'1212.2
2015-Aug-04 04:33N 22°20' E 113°48'1212.2
2015-Aug-04 03:32N 22°32' E 113°44'1111.3
2015-Aug-04 02:33N 22°43' E 113°40'2 1.2
2015-Aug-04 01:04N 22°45' E 113°40'0 0.0
2015-Aug-04 00:10N 22°45' E 113°40'0 0.0
2015-Aug-03 20:16N 22°45' E 113°40'0 0.0
2015-Aug-03 18:22N 22°45' E 113°40'0 0.0
2015-Aug-03 14:28N 22°45' E 113°40'0 0.0
2015-Aug-03 12:04N 22°45' E 113°40'0 0.0
2015-Aug-02 23:10N 22°45' E 113°40'0 0.0
2015-Aug-02 19:04N 22°45' E 113°40'0 0.0
2015-Aug-02 17:22N 22°45' E 113°40'0 0.0
2015-Aug-02 03:28N 22°45' E 113°40'0 0.0
2015-Aug-02 01:16N 22°45' E 113°40'0 0.0
2015-Aug-01 22:22N 22°45' E 113°40'0 0.0
2015-Aug-01 16:32N 22°44' E 113°40'0 0.3
2015-Aug-01 15:30N 22°44' E 113°40'17 6.8
2015-Aug-01 13:04N 22°28' E 113°45'611.1
2015-Aug-01 12:33N 22°23' E 113°47'1010.3
2015-Aug-01 11:33N 22°13' E 113°50'9 8.7
2015-Aug-01 10:32N 22°04' E 113°51'32 7.3
2015-Aug-01 06:10N 21°54' E 114°24'14412.4
2015-Jul-31 18:33N 22°48' E 116°48'9811.6
2015-Jul-31 10:08N 23°44' E 118°14'711.4
2015-Jul-31 09:32N 23°49' E 118°20'1211.5
2015-Jul-31 08:30N 23°57' E 118°30'1212.8
2015-Jul-31 07:32N 24°05' E 118°40'1313.0
2015-Jul-31 06:33N 24°14' E 118°50'1713.4
2015-Jul-31 05:15N 24°25' E 119°04'913.0
2015-Jul-31 04:33N 24°32' E 119°11'3912.6
2015-Jul-31 01:27N 24°58' E 119°44'33311.9
2015-Jul-29 21:27N 29°46' E 122°52'1111.6
2015-Jul-29 20:32N 29°56' E 122°56'1111.5
2015-Jul-29 19:33N 30°07' E 122°60'1211.8
2015-Jul-29 18:32N 30°18' E 123°05'1211.7
2015-Jul-29 17:33N 30°29' E 123°08'2211.0
2015-Jul-29 15:32N 30°50' E 123°15'1010.7
2015-Jul-29 14:33N 31°01' E 123°15'1010.2
2015-Jul-29 13:32N 31°11' E 123°15'1010.0
2015-Jul-29 12:33N 31°21' E 123°15'1110.5
2015-Jul-29 11:31N 31°32' E 123°15'1111.3
2015-Jul-29 10:33N 31°43' E 123°14'1212.4
2015-Jul-29 09:33N 31°55' E 123°14'1413.6
2015-Jul-29 08:33N 32°09' E 123°15'1414.1
2015-Jul-29 07:32N 32°23' E 123°15'28412.1
2015-Jul-28 08:07N 37°07' E 123°16'4710.4
2015-Jul-28 03:33N 37°44' E 122°38'10912.1
2015-Jul-27 18:32N 38°32' E 120°34'1212.6
2015-Jul-27 17:33N 38°32' E 120°18'1212.3
2015-Jul-27 16:33N 38°32' E 120°02'1212.0
2015-Jul-27 15:33N 38°32' E 119°47'1211.6
2015-Jul-27 14:33N 38°32' E 119°32'  
Track history (hours):
 
Tides and Currents Weather Stations Pressure Air Temp Water Temp Dewpoint Dewpoint Depression Visibility Wind Speed Wind Dir Waves Ship Positions

Yuedian 58

Last reported at 2015-Aug-04 06:16 UTC. Time now 2015-Aug-04 11:44 UTC.
Position N 21°59' E 113°51'.

Length 190 m; draft 7 m.

Type: Cargo ship. MMSI: 414008000.

Date/timePositionNaut miles runAvg speedWind from/ knotsBaromVisibWave heightAir tempDewpointWater temp
2015-Aug-04 06:16N 21°59' E 113°51'1013.5
2015-Aug-04 05:33N 22°08' E 113°48'1212.2
2015-Aug-04 04:33N 22°20' E 113°48'1212.2
2015-Aug-04 03:32N 22°32' E 113°44'1111.3
2015-Aug-04 02:33N 22°43' E 113°40'2 1.2
2015-Aug-04 01:04N 22°45' E 113°40'0 0.0
2015-Aug-04 00:10N 22°45' E 113°40'0 0.0
2015-Aug-03 20:16N 22°45' E 113°40'0 0.0
2015-Aug-03 18:22N 22°45' E 113°40'0 0.0
2015-Aug-03 14:28N 22°45' E 113°40'0 0.0
2015-Aug-03 12:04N 22°45' E 113°40'0 0.0
2015-Aug-02 23:10N 22°45' E 113°40'0 0.0
2015-Aug-02 19:04N 22°45' E 113°40'0 0.0
2015-Aug-02 17:22N 22°45' E 113°40'0 0.0
2015-Aug-02 03:28N 22°45' E 113°40'0 0.0
2015-Aug-02 01:16N 22°45' E 113°40'0 0.0
2015-Aug-01 22:22N 22°45' E 113°40'0 0.0
2015-Aug-01 16:32N 22°44' E 113°40'0 0.3
2015-Aug-01 15:30N 22°44' E 113°40'17 6.8
2015-Aug-01 13:04N 22°28' E 113°45'611.1
2015-Aug-01 12:33N 22°23' E 113°47'1010.3
2015-Aug-01 11:33N 22°13' E 113°50'9 8.7
2015-Aug-01 10:32N 22°04' E 113°51'32 7.3
2015-Aug-01 06:10N 21°54' E 114°24'14412.4
2015-Jul-31 18:33N 22°48' E 116°48'9811.6
2015-Jul-31 10:08N 23°44' E 118°14'711.4
2015-Jul-31 09:32N 23°49' E 118°20'1211.5
2015-Jul-31 08:30N 23°57' E 118°30'1212.8
2015-Jul-31 07:32N 24°05' E 118°40'1313.0
2015-Jul-31 06:33N 24°14' E 118°50'1713.4
2015-Jul-31 05:15N 24°25' E 119°04'913.0
2015-Jul-31 04:33N 24°32' E 119°11'3912.6
2015-Jul-31 01:27N 24°58' E 119°44'33311.9
2015-Jul-29 21:27N 29°46' E 122°52'1111.6
2015-Jul-29 20:32N 29°56' E 122°56'1111.5
2015-Jul-29 19:33N 30°07' E 122°60'1211.8
2015-Jul-29 18:32N 30°18' E 123°05'1211.7
2015-Jul-29 17:33N 30°29' E 123°08'2211.0
2015-Jul-29 15:32N 30°50' E 123°15'1010.7
2015-Jul-29 14:33N 31°01' E 123°15'1010.2
2015-Jul-29 13:32N 31°11' E 123°15'1010.0
2015-Jul-29 12:33N 31°21' E 123°15'1110.5
2015-Jul-29 11:31N 31°32' E 123°15'1111.3
2015-Jul-29 10:33N 31°43' E 123°14'1212.4
2015-Jul-29 09:33N 31°55' E 123°14'1413.6
2015-Jul-29 08:33N 32°09' E 123°15'1414.1
2015-Jul-29 07:32N 32°23' E 123°15'28412.1
2015-Jul-28 08:07N 37°07' E 123°16'4710.4
2015-Jul-28 03:33N 37°44' E 122°38'10912.1
2015-Jul-27 18:32N 38°32' E 120°34'1212.6
2015-Jul-27 17:33N 38°32' E 120°18'1212.3
2015-Jul-27 16:33N 38°32' E 120°02'1212.0
2015-Jul-27 15:33N 38°32' E 119°47'1211.6
2015-Jul-27 14:33N 38°32' E 119°32'  

Dump ship's entire track history